createdAt,value
2023-03-01T00:01:20.625Z,103376.41
2023-03-01T00:03:47.438Z,103365.88
2023-03-01T00:06:14.213Z,103353.25
2023-03-01T00:08:41.351Z,103396.59
2023-03-01T00:11:16.085Z,103421.50
2023-03-01T00:13:43.936Z,103407.03
2023-03-01T00:16:19.582Z,103434.09
2023-03-01T00:18:46.831Z,103379.22
2023-03-01T00:21:13.704Z,103372.44
2023-03-01T00:23:40.889Z,103418.34
2023-03-01T00:26:10.461Z,103416.25
2023-03-01T00:28:37.162Z,103372.97
2023-03-01T00:31:08.789Z,103424.38
2023-03-01T00:33:35.593Z,103368.09
2023-03-01T00:36:02.846Z,103415.75
2023-03-01T00:38:29.838Z,103422.44
2023-03-01T00:40:56.574Z,103412.69
2023-03-01T00:43:23.393Z,103337.97
2023-03-01T00:45:50.410Z,103383.53
2023-03-01T00:48:17.194Z,103363.09
2023-03-01T00:56:27.422Z,103357.81
2023-03-01T00:58:54.153Z,103348.81
2023-03-01T01:01:28.531Z,103364.69
2023-03-01T01:04:00.227Z,103348.53
2023-03-01T01:06:39.058Z,103324.56
2023-03-01T01:09:08.123Z,103387.88
2023-03-01T01:11:37.430Z,103335.84
2023-03-01T01:14:04.248Z,103342.31
2023-03-01T01:16:31.691Z,103337.13
2023-03-01T01:19:03.755Z,103294.44
2023-03-01T01:21:30.797Z,103373.66
2023-03-01T01:23:58.281Z,103332.28
2023-03-01T01:26:27.630Z,103347.78
2023-03-01T01:28:55.018Z,103351.66
2023-03-01T01:31:24.772Z,103336.50
2023-03-01T01:33:52.196Z,103321.22
2023-03-01T01:36:18.960Z,103273.66
2023-03-01T01:38:45.980Z,103305.78
2023-03-01T01:41:14.250Z,103315.09
2023-03-01T01:43:44.179Z,103345.06
2023-03-01T01:46:25.115Z,103318.78
2023-03-01T01:49:08.756Z,103273.47
2023-03-01T01:51:41.482Z,103323.94
2023-03-01T01:54:21.528Z,103289.53
2023-03-01T01:56:56.092Z,103263.84
2023-03-01T01:59:25.730Z,103238.78
2023-03-01T02:01:56.012Z,103283.69
2023-03-01T02:04:23.851Z,103300.28
2023-03-01T02:07:21.215Z,103305.59
2023-03-01T02:09:50.944Z,103253.88
2023-03-01T02:12:19.626Z,103274.81
2023-03-01T02:14:46.495Z,103276.56
2023-03-01T02:17:16.786Z,103276.75
2023-03-01T02:20:08.065Z,103311.66
2023-03-01T02:22:38.154Z,103276.50
2023-03-01T02:25:19.865Z,103297.03
2023-03-01T02:28:17.115Z,103301.28
2023-03-01T02:31:04.462Z,103287.31
2023-03-01T02:33:33.874Z,103281.97
2023-03-01T02:36:05.777Z,103267.53
2023-03-01T02:38:33.340Z,103271.38
2023-03-01T02:41:03.071Z,103311.63
2023-03-01T02:43:32.752Z,103270.91
2023-03-01T02:46:04.875Z,103295.78
2023-03-01T02:48:46.029Z,103307.25
2023-03-01T02:51:35.518Z,103314.63
2023-03-01T02:54:29.281Z,103271.22
2023-03-01T02:56:57.129Z,103302.78
2023-03-01T02:59:40.280Z,103288.03
2023-03-01T03:02:37.442Z,103296.56
2023-03-01T03:05:14.711Z,103256.41
2023-03-01T03:07:44.266Z,103259.66
2023-03-01T03:10:15.589Z,103289.97
2023-03-01T03:12:42.878Z,103281.34
2023-03-01T03:15:13.799Z,103281.47
2023-03-01T03:17:42.016Z,103269.72
2023-03-01T03:20:12.712Z,103231.94
2023-03-01T03:22:40.996Z,103244.91
2023-03-01T03:25:12.792Z,103274.34
2023-03-01T03:27:40.651Z,103251.19
2023-03-01T03:30:10.555Z,103255.47
2023-03-01T03:32:37.626Z,103235.03
2023-03-01T03:35:12.696Z,103211.47
2023-03-01T03:37:59.405Z,103271.75
2023-03-01T03:40:26.892Z,103245.25
2023-03-01T03:42:53.633Z,103243.63
2023-03-01T03:45:20.310Z,103208.69
2023-03-01T03:47:47.119Z,103255.38
2023-03-01T03:50:15.899Z,103267.84
2023-03-01T03:52:43.238Z,103253.19
2023-03-01T03:55:12.892Z,103259.78
2023-03-01T03:57:43.333Z,103230.81
2023-03-01T04:00:13.804Z,103253.88
2023-03-01T04:02:44.430Z,103214.19
2023-03-01T04:05:15.339Z,103259.97
2023-03-01T04:07:43.425Z,103186.31
2023-03-01T04:10:18.607Z,103254.09
2023-03-01T04:12:45.427Z,103251.59
2023-03-01T04:15:15.910Z,103253.47
2023-03-01T04:17:47.744Z,103227.34
2023-03-01T04:20:18.436Z,103207.94
2023-03-01T04:22:48.688Z,103241.41
2023-03-01T04:25:15.639Z,103176.41
2023-03-01T04:27:42.473Z,103236.84
2023-03-01T04:30:09.859Z,103190.44
2023-03-01T04:32:36.573Z,103151.97
2023-03-01T04:35:03.360Z,103242.53
2023-03-01T04:37:30.839Z,103221.44
2023-03-01T04:39:57.650Z,103187.44
2023-03-01T04:42:24.312Z,103187.22
2023-03-01T04:44:52.374Z,103149.72
2023-03-01T04:47:19.054Z,103165.31
2023-03-01T04:49:45.717Z,103146.75
2023-03-01T04:52:12.384Z,103199.31
2023-03-01T04:54:39.030Z,103215.25
2023-03-01T04:57:05.728Z,103192.38
2023-03-01T04:59:32.371Z,103191.88
2023-03-01T05:01:59.121Z,103183.22
2023-03-01T05:04:26.117Z,103218.16
2023-03-01T05:06:54.696Z,103165.47
2023-03-01T05:09:21.397Z,103195.47
2023-03-01T05:11:48.123Z,103156.81
2023-03-01T05:14:14.845Z,103152.69
2023-03-01T05:16:41.510Z,103201.06
2023-03-01T05:19:16.304Z,103177.31
2023-03-01T05:22:02.574Z,103198.28
2023-03-01T05:24:31.135Z,103224.63
2023-03-01T05:26:57.996Z,103227.22
2023-03-01T05:29:26.384Z,103147.50
2023-03-01T05:31:59.209Z,103215.78
2023-03-01T05:34:35.100Z,103199.16
2023-03-01T05:37:02.354Z,103219.50
2023-03-01T05:39:30.456Z,103241.25
2023-03-01T05:41:59.492Z,103235.91
2023-03-01T05:44:27.206Z,103147.50
2023-03-01T05:46:54.144Z,103160.38
2023-03-01T05:49:20.864Z,103168.41
2023-03-01T05:51:53.271Z,103225.75
2023-03-01T05:54:21.802Z,103227.31
2023-03-01T05:56:48.659Z,103197.34
2023-03-01T05:59:17.427Z,103178.25
2023-03-01T06:01:44.672Z,103221.25
2023-03-01T06:04:11.708Z,103239.88
2023-03-01T06:06:40.538Z,103240.09
2023-03-01T06:09:10.285Z,103236.53
2023-03-01T06:11:38.117Z,103195.53
2023-03-01T06:14:07.535Z,103200.50
2023-03-01T06:16:34.391Z,103229.69
2023-03-01T06:19:01.175Z,103224.97
2023-03-01T06:21:27.908Z,103201.50
2023-03-01T06:23:54.613Z,103200.13
2023-03-01T06:26:21.546Z,103211.91
2023-03-01T06:28:48.214Z,103197.66
2023-03-01T06:31:15.052Z,103188.97
2023-03-01T06:33:44.491Z,103235.06
2023-03-01T06:36:11.259Z,103201.06
2023-03-01T06:38:38.068Z,103192.16
2023-03-01T06:41:05.107Z,103175.88
2023-03-01T06:43:31.881Z,103193.81
2023-03-01T06:45:58.539Z,103183.34
2023-03-01T06:48:25.278Z,103223.78
2023-03-01T06:50:52.048Z,103194.97
2023-03-01T06:53:18.798Z,103190.91
2023-03-01T06:55:45.528Z,103220.19
2023-03-01T06:58:12.425Z,103200.78
2023-03-01T07:00:41.211Z,103215.84
2023-03-01T07:03:08.023Z,103211.50
2023-03-01T07:05:35.255Z,103224.97
2023-03-01T07:08:02.337Z,103215.69
2023-03-01T07:10:29.220Z,103235.06
2023-03-01T07:12:57.410Z,103190.13
2023-03-01T07:15:24.349Z,103241.78
2023-03-01T07:17:51.890Z,103245.72
2023-03-01T07:20:22.263Z,103174.28
2023-03-01T07:22:49.356Z,103196.97
2023-03-01T07:25:16.257Z,103228.75
2023-03-01T07:27:42.932Z,103209.56
2023-03-01T07:30:10.615Z,103173.34
2023-03-01T07:32:37.472Z,103228.34
2023-03-01T07:35:04.461Z,103196.91
2023-03-01T07:37:31.205Z,103206.06
2023-03-01T07:39:58.801Z,103220.03
2023-03-01T07:42:25.489Z,103188.72
2023-03-01T07:44:52.162Z,103229.66
2023-03-01T07:47:18.886Z,103208.13
2023-03-01T07:49:45.691Z,103194.06
2023-03-01T07:52:13.183Z,103194.97
2023-03-01T07:54:40.223Z,103210.31
2023-03-01T07:57:06.940Z,103185.41
2023-03-01T07:59:34.579Z,103256.56
2023-03-01T08:02:01.380Z,103226.44
2023-03-01T08:04:28.161Z,103220.19
2023-03-01T08:06:56.200Z,103205.59
2023-03-01T08:09:23.613Z,103214.97
2023-03-01T08:11:50.411Z,103244.50
2023-03-01T08:14:17.387Z,103187.53
2023-03-01T08:16:44.181Z,103187.53
2023-03-01T08:19:13.416Z,103240.09
2023-03-01T08:21:40.175Z,103185.19
2023-03-01T08:24:07.709Z,103194.47
2023-03-01T08:26:35.182Z,103218.72
2023-03-01T08:29:02.413Z,103194.13
2023-03-01T08:31:41.050Z,103177.78
2023-03-01T08:34:14.476Z,103239.97
2023-03-01T08:36:43.834Z,103255.66
2023-03-01T08:39:13.106Z,103249.03
2023-03-01T08:41:40.396Z,103204.81
2023-03-01T08:44:07.626Z,103245.69
2023-03-01T08:46:41.375Z,103181.28
2023-03-01T08:49:13.764Z,103185.03
2023-03-01T08:51:40.712Z,103195.81
2023-03-01T08:54:12.136Z,103221.50
2023-03-01T08:56:39.656Z,103176.56
2023-03-01T08:59:06.588Z,103187.69
2023-03-01T09:01:33.607Z,103258.94
2023-03-01T09:04:00.523Z,103211.69
2023-03-01T09:06:27.241Z,103247.97
2023-03-01T09:08:54.169Z,103237.13
2023-03-01T09:11:22.409Z,103172.44
2023-03-01T09:13:50.174Z,103214.31
2023-03-01T09:16:19.010Z,103249.50
2023-03-01T09:18:46.925Z,103218.19
2023-03-01T09:21:17.432Z,103244.97
2023-03-01T09:23:47.489Z,103251.00
2023-03-01T09:26:17.929Z,103235.69
2023-03-01T09:28:47.280Z,103186.53
2023-03-01T09:31:15.137Z,103189.34
2023-03-01T09:33:43.224Z,103241.44
2023-03-01T09:36:13.630Z,103211.84
2023-03-01T09:38:40.497Z,103169.38
2023-03-01T09:41:26.387Z,103247.59
2023-03-01T09:43:58.998Z,103215.63
2023-03-01T09:46:27.935Z,103204.88
2023-03-01T09:49:11.973Z,103173.53
2023-03-01T09:51:38.825Z,103179.28
2023-03-01T09:54:09.434Z,103251.69
2023-03-01T09:56:39.755Z,103248.72
2023-03-01T09:59:23.471Z,103238.53
2023-03-01T10:01:59.137Z,103242.09
2023-03-01T10:04:49.534Z,103228.91
2023-03-01T10:07:33.778Z,103235.75
2023-03-01T10:10:01.593Z,103181.84
2023-03-01T10:12:41.301Z,103234.56
2023-03-01T10:15:13.662Z,103225.16
2023-03-01T10:17:58.963Z,103195.44
2023-03-01T10:20:31.792Z,103174.47
2023-03-01T10:22:58.525Z,103193.50
2023-03-01T10:25:43.955Z,103227.66
2023-03-01T10:28:26.242Z,103214.41
2023-03-01T10:30:54.096Z,103203.28
2023-03-01T10:33:32.122Z,103228.50
2023-03-01T10:35:59.335Z,103179.66
2023-03-01T10:38:26.259Z,103193.44
2023-03-01T10:41:09.618Z,103227.00
2023-03-01T10:43:47.245Z,103222.16
2023-03-01T10:46:31.730Z,103190.13
2023-03-01T10:49:20.626Z,103212.31
2023-03-01T10:51:50.796Z,103221.88
2023-03-01T10:54:29.148Z,103180.53
2023-03-01T10:57:04.950Z,103173.91
2023-03-01T10:59:39.645Z,103199.72
2023-03-01T11:02:29.327Z,103228.44
2023-03-01T11:05:14.022Z,103221.25
2023-03-01T11:07:53.185Z,103139.94
2023-03-01T11:10:35.083Z,103180.84
2023-03-01T11:13:20.669Z,103212.94
2023-03-01T11:16:02.467Z,103207.69
2023-03-01T11:18:46.349Z,103202.88
2023-03-01T11:21:16.497Z,103161.28
2023-03-01T11:23:46.768Z,103161.63
2023-03-01T11:26:14.764Z,103137.00
2023-03-01T11:28:43.798Z,103108.66
2023-03-01T11:31:16.234Z,103141.09
2023-03-01T11:33:56.686Z,103178.44
2023-03-01T11:36:45.173Z,103180.09
2023-03-01T11:39:43.010Z,103174.22
2023-03-01T11:42:21.481Z,103125.03
2023-03-01T11:44:51.645Z,103139.97
2023-03-01T11:47:24.141Z,103161.81
2023-03-01T11:50:09.746Z,103162.66
2023-03-01T11:53:05.764Z,103157.31
2023-03-01T11:55:41.617Z,103152.13
2023-03-01T11:58:28.490Z,103143.94
2023-03-01T12:01:16.781Z,103125.53
2023-03-01T12:04:05.284Z,103150.91
2023-03-01T12:07:13.770Z,103143.91
2023-03-01T12:09:46.341Z,103145.72
2023-03-01T12:12:38.965Z,103148.06
2023-03-01T12:15:45.930Z,103142.25
2023-03-01T12:18:44.226Z,103114.81
2023-03-01T12:21:29.816Z,103129.88
2023-03-01T12:24:34.020Z,103128.97
2023-03-01T12:27:00.654Z,103126.28
2023-03-01T12:29:38.278Z,103083.34
2023-03-01T12:32:10.181Z,103095.78
2023-03-01T12:35:13.698Z,103113.53
2023-03-01T12:37:47.755Z,103111.22
2023-03-01T12:40:21.965Z,103111.19
2023-03-01T12:43:28.461Z,103054.09
2023-03-01T12:46:01.138Z,103060.72
2023-03-01T12:48:46.637Z,103097.31
2023-03-01T12:51:16.888Z,103066.03
2023-03-01T12:53:48.662Z,103014.34
2023-03-01T12:56:19.532Z,103027.38
2023-03-01T12:59:12.470Z,103083.50
2023-03-01T13:02:06.020Z,103020.81
2023-03-01T13:04:51.060Z,103087.22
2023-03-01T13:07:17.865Z,103076.78
2023-03-01T13:10:10.998Z,103024.22
2023-03-01T13:12:50.626Z,103027.94
2023-03-01T13:15:28.889Z,103064.00
2023-03-01T13:17:59.675Z,102997.53
2023-03-01T13:20:32.993Z,103065.78
2023-03-01T13:23:12.038Z,103047.47
2023-03-01T13:26:03.687Z,103046.69
2023-03-01T13:28:36.489Z,103056.38
2023-03-01T13:31:07.999Z,103050.09
2023-03-01T13:33:47.862Z,102996.59
2023-03-01T13:36:30.829Z,103046.59
2023-03-01T13:39:00.177Z,102973.25
2023-03-01T13:41:42.081Z,103038.94
2023-03-01T13:44:24.883Z,103027.63
2023-03-01T13:46:54.191Z,102982.09
2023-03-01T13:49:24.884Z,103022.13
2023-03-01T13:51:52.846Z,102954.97
2023-03-01T13:54:32.352Z,103005.84
2023-03-01T13:57:03.546Z,102952.41
2023-03-01T13:59:31.701Z,102971.69
2023-03-01T14:02:00.691Z,102977.78
2023-03-01T14:04:32.433Z,102991.84
2023-03-01T14:07:21.024Z,102963.78
2023-03-01T14:09:53.248Z,102946.13
2023-03-01T14:12:42.663Z,103008.31
2023-03-01T14:15:35.421Z,103004.94
2023-03-01T14:18:02.188Z,102999.56
2023-03-01T14:20:33.426Z,102967.09
2023-03-01T14:23:09.816Z,102962.72
2023-03-01T14:25:39.129Z,102991.44
2023-03-01T14:28:15.664Z,102915.56
2023-03-01T14:30:48.574Z,102938.06
2023-03-01T14:33:25.741Z,102979.16
2023-03-01T14:36:06.541Z,102987.94
2023-03-01T14:38:43.464Z,102992.28
2023-03-01T14:41:18.986Z,102984.50
2023-03-01T14:43:53.353Z,102988.94
2023-03-01T14:46:38.909Z,102982.59
2023-03-01T14:49:11.781Z,102960.03
2023-03-01T14:51:40.450Z,102977.28
2023-03-01T14:55:05.650Z,102982.69
2023-03-01T14:57:33.164Z,102926.91
2023-03-01T15:00:05.922Z,102952.28
2023-03-01T15:02:34.043Z,102901.66
2023-03-01T15:05:08.165Z,102949.72
2023-03-01T15:07:41.093Z,102947.16
2023-03-01T15:10:16.833Z,102928.03
2023-03-01T15:12:43.697Z,102898.31
2023-03-01T15:15:30.995Z,102964.72
2023-03-01T15:18:01.215Z,102926.38
2023-03-01T15:20:31.070Z,102904.53
2023-03-01T15:22:58.447Z,102892.22
2023-03-01T15:25:28.468Z,102917.69
2023-03-01T15:27:57.801Z,102907.94
2023-03-01T15:30:26.897Z,102948.16
2023-03-01T15:33:19.998Z,102942.91
2023-03-01T15:35:49.562Z,102939.38
2023-03-01T15:38:51.340Z,102951.72
2023-03-01T15:41:29.158Z,102950.78
2023-03-01T15:43:56.872Z,102900.19
2023-03-01T15:46:27.272Z,102932.56
2023-03-01T15:48:57.939Z,102943.00
2023-03-01T15:51:37.056Z,102939.59
2023-03-01T15:54:18.655Z,102895.03
2023-03-01T15:56:45.633Z,102909.97
2023-03-01T15:59:15.112Z,102917.59
2023-03-01T16:01:42.718Z,102906.28
2023-03-01T16:04:21.882Z,102919.31
2023-03-01T16:06:55.055Z,102876.44
2023-03-01T16:09:26.515Z,102872.84
2023-03-01T16:11:54.979Z,102925.31
2023-03-01T16:14:22.738Z,102851.97
2023-03-01T16:16:50.139Z,102908.56
2023-03-01T16:19:17.402Z,102877.25
2023-03-01T16:21:47.759Z,102838.03
2023-03-01T16:24:15.372Z,102836.38
2023-03-01T16:26:43.295Z,102896.75
2023-03-01T16:29:40.928Z,102900.28
2023-03-01T16:32:07.927Z,102806.66
2023-03-01T16:34:35.234Z,102880.84
2023-03-01T16:37:02.208Z,102822.41
2023-03-01T16:39:29.126Z,102858.22
2023-03-01T16:41:56.112Z,102831.97
2023-03-01T16:44:22.874Z,102810.97
2023-03-01T16:46:49.932Z,102835.41
2023-03-01T16:49:16.672Z,102834.47
2023-03-01T16:51:43.371Z,102871.19
2023-03-01T16:54:10.823Z,102838.06
2023-03-01T16:56:39.711Z,102807.56
2023-03-01T16:59:07.260Z,102822.28
2023-03-01T17:01:38.625Z,102868.75
2023-03-01T17:04:05.568Z,102834.59
2023-03-01T17:06:33.478Z,102790.19
2023-03-01T17:09:00.699Z,102791.09
2023-03-01T17:11:27.410Z,102840.78
2023-03-01T17:13:54.320Z,102846.97
2023-03-01T17:16:22.132Z,102866.03
2023-03-01T17:18:50.073Z,102841.59
2023-03-01T17:21:17.678Z,102785.78
2023-03-01T17:23:46.300Z,102860.78
2023-03-01T17:26:13.751Z,102807.50
2023-03-01T17:28:41.215Z,102811.00
2023-03-01T17:31:07.945Z,102832.84
2023-03-01T17:33:34.988Z,102818.75
2023-03-01T17:36:02.376Z,102827.50
2023-03-01T17:38:29.126Z,102846.66
2023-03-01T17:40:55.871Z,102795.97
2023-03-01T17:43:22.675Z,102827.44
2023-03-01T17:45:51.599Z,102802.97
2023-03-01T17:48:18.612Z,102817.78
2023-03-01T17:50:45.399Z,102837.03
2023-03-01T17:53:12.926Z,102830.91
2023-03-01T17:55:41.493Z,102853.69
2023-03-01T17:58:09.809Z,102796.06
2023-03-01T18:00:37.185Z,102825.84
2023-03-01T18:03:04.627Z,102825.78
2023-03-01T18:05:40.346Z,102808.31
2023-03-01T18:08:07.125Z,102837.97
2023-03-01T18:10:36.536Z,102821.38
2023-03-01T18:13:05.018Z,102829.19
2023-03-01T18:15:32.514Z,102782.19
2023-03-01T18:17:59.471Z,102808.25
2023-03-01T18:20:27.464Z,102777.78
2023-03-01T18:22:54.171Z,102754.31
2023-03-01T18:25:22.155Z,102806.63
2023-03-01T18:27:49.159Z,102811.72
2023-03-01T18:30:16.077Z,102797.75
2023-03-01T18:32:45.804Z,102806.28
2023-03-01T18:35:12.503Z,102816.06
2023-03-01T18:37:39.232Z,102835.25
2023-03-01T18:40:08.133Z,102791.44
2023-03-01T18:42:34.810Z,102766.22
2023-03-01T18:45:01.543Z,102827.44
2023-03-01T18:47:28.234Z,102769.72
2023-03-01T18:49:54.928Z,102780.31
2023-03-01T18:52:21.625Z,102830.94
2023-03-01T18:54:51.372Z,102822.25
2023-03-01T18:57:18.308Z,102798.63
2023-03-01T18:59:45.092Z,102764.53
2023-03-01T19:02:12.970Z,102784.63
2023-03-01T19:04:40.733Z,102778.47
2023-03-01T19:07:08.239Z,102777.59
2023-03-01T19:09:35.136Z,102789.63
2023-03-01T19:12:03.961Z,102791.38
2023-03-01T19:14:31.668Z,102769.47
2023-03-01T19:16:59.309Z,102846.13
2023-03-01T19:19:27.345Z,102750.97
2023-03-01T19:22:05.206Z,102810.16
2023-03-01T19:24:33.560Z,102793.72
2023-03-01T19:27:07.547Z,102763.88
2023-03-01T19:29:36.030Z,102812.56
2023-03-01T19:32:05.711Z,102769.84
2023-03-01T19:34:33.613Z,102780.25
2023-03-01T19:37:05.380Z,102772.25
2023-03-01T19:39:36.133Z,102784.72
2023-03-01T19:42:05.061Z,102784.59
2023-03-01T19:44:32.229Z,102763.69
2023-03-01T19:46:59.680Z,102780.22
2023-03-01T19:49:31.166Z,102772.47
2023-03-01T19:51:59.405Z,102749.81
2023-03-01T19:54:30.088Z,102753.22
2023-03-01T19:56:58.010Z,102755.75
2023-03-01T19:59:28.130Z,102768.63
2023-03-01T20:01:56.569Z,102779.34
2023-03-01T20:04:27.252Z,102812.56
2023-03-01T20:06:57.844Z,102817.81
2023-03-01T20:09:25.612Z,102791.63
2023-03-01T20:11:53.520Z,102786.31
2023-03-01T20:14:24.232Z,102733.84
2023-03-01T20:16:54.298Z,102786.13
2023-03-01T20:19:21.442Z,102793.13
2023-03-01T20:21:52.012Z,102800.16
2023-03-01T20:24:18.758Z,102730.06
2023-03-01T20:26:48.870Z,102742.41
2023-03-01T20:29:15.771Z,102768.59
2023-03-01T20:31:43.423Z,102804.22
2023-03-01T20:34:10.656Z,102757.09
2023-03-01T20:36:39.648Z,102726.41
2023-03-01T20:39:06.575Z,102721.25
2023-03-01T20:41:33.424Z,102785.06
2023-03-01T20:44:12.505Z,102763.06
2023-03-01T20:46:40.197Z,102767.03
2023-03-01T20:49:09.649Z,102784.88
2023-03-01T20:51:36.950Z,102774.50
2023-03-01T20:54:03.838Z,102738.03
2023-03-01T20:56:34.191Z,102815.63
2023-03-01T20:59:01.306Z,102733.28
2023-03-01T21:01:28.540Z,102786.63
2023-03-01T21:03:56.046Z,102737.91
2023-03-01T21:06:23.181Z,102737.94
2023-03-01T21:08:49.963Z,102762.16
2023-03-01T21:11:18.430Z,102714.34
2023-03-01T21:13:45.509Z,102675.84
2023-03-01T21:16:14.276Z,102750.41
2023-03-01T21:18:44.654Z,102712.91
2023-03-01T21:21:22.823Z,102703.25
2023-03-01T21:23:49.792Z,102725.06
2023-03-01T21:26:21.109Z,102776.56
2023-03-01T21:28:50.299Z,102765.38
2023-03-01T21:31:20.691Z,102757.41
2023-03-01T21:33:50.617Z,102768.91
2023-03-01T21:36:17.901Z,102777.53
2023-03-01T21:38:48.530Z,102775.13
2023-03-01T21:41:20.811Z,102769.94
2023-03-01T21:43:49.908Z,102719.91
2023-03-01T21:46:20.401Z,102707.06
2023-03-01T21:48:48.599Z,102762.97
2023-03-01T21:51:16.942Z,102744.50
2023-03-01T21:53:44.009Z,102752.50
2023-03-01T21:56:16.369Z,102766.53
2023-03-01T21:58:46.438Z,102686.13
2023-03-01T22:01:19.572Z,102755.06
2023-03-01T22:03:46.443Z,102745.50
2023-03-01T22:06:19.691Z,102770.03
2023-03-01T22:09:09.700Z,102739.50
2023-03-01T22:11:39.645Z,102757.06
2023-03-01T22:14:07.572Z,102760.66
2023-03-01T22:16:36.909Z,102768.53
2023-03-01T22:19:04.830Z,102766.81
2023-03-01T22:21:33.520Z,102682.88
2023-03-01T22:24:00.902Z,102749.16
2023-03-01T22:26:39.553Z,102694.16
2023-03-01T22:29:09.641Z,102690.66
2023-03-01T22:31:37.015Z,102718.53
2023-03-01T22:34:04.754Z,102689.78
2023-03-01T22:36:32.995Z,102703.84
2023-03-01T22:39:00.581Z,102695.81
2023-03-01T22:41:33.904Z,102750.09
2023-03-01T22:44:04.073Z,102704.63
2023-03-01T22:46:31.484Z,102697.66
2023-03-01T22:48:58.526Z,102722.19
2023-03-01T22:51:35.010Z,102665.91
2023-03-01T22:54:02.106Z,102699.44
2023-03-01T22:56:31.735Z,102758.88
2023-03-01T22:59:03.519Z,102644.31
2023-03-01T23:01:31.946Z,102676.59
2023-03-01T23:03:58.995Z,102691.56
2023-03-01T23:06:25.920Z,102722.94
2023-03-01T23:08:55.305Z,102697.59
2023-03-01T23:11:23.481Z,102681.13
2023-03-01T23:13:53.156Z,102682.84
2023-03-01T23:16:26.375Z,102695.88
2023-03-01T23:18:54.818Z,102744.03
2023-03-01T23:21:24.826Z,102714.31
2023-03-01T23:23:51.976Z,102720.47
2023-03-01T23:26:19.262Z,102676.91
2023-03-01T23:28:46.103Z,102686.53
2023-03-01T23:31:16.570Z,102709.25
2023-03-01T23:33:45.307Z,102717.09
2023-03-01T23:36:15.013Z,102740.59
2023-03-01T23:38:42.094Z,102675.00
2023-03-01T23:41:18.036Z,102696.81
2023-03-01T23:43:46.118Z,102670.63
2023-03-01T23:46:14.688Z,102680.44
2023-03-01T23:48:42.848Z,102687.41
2023-03-01T23:51:10.269Z,102718.09
2023-03-01T23:53:39.780Z,102712.88
2023-03-01T23:56:07.392Z,102647.44
2023-03-01T23:58:34.153Z,102649.19
